Angermuende, Germany

3:32 PM CET on March 05, 2015 (GMT +0100)
Tegel | Change Station
CLOSE
Current Station
Airport
Location: Berlin Tegel,
Elevation: 121 ft
Nearby Weather Stations

Elev 121 ft 52.56 °N, 13.31 °E | Updated 12 minutes ago

Mostly Cloudy
Mostly Cloudy
43 °F
Feels Like 37 °F
N
10
Wind Variable Wind from WNW

Today
High -- | Low -- °F
--% Chance of Precip.
Yesterday
High -- | Low -- °F
Precip. -- in
6:42 AM 5:49 PM
Full, 100% visible
Pressure 30.48 in
Visibility 6.2 miles
Clouds Scattered Clouds 2300 ft
Mostly Cloudy 6000 ft
Windchill 37 °F
Dew Point 34 °F
Humidity 70%
Rainfall 0.00 in
Snow Depth Not available.
UV 1 out of 12
Pollen Not available.
Air Quality Not available.
Flu Activity Not available.
METAR EDDT 051420Z 30009KT 9999 VCSH SCT023 BKN060 06/01 Q1032 NOSIG

More Conditions Fewer Conditions

Pressure 30.48 in
Visibility 6.2 miles
Clouds Scattered Clouds 2300 ft
Mostly Cloudy 6000 ft
Windchill 37 °F
Dew Point 34 °F
Humidity 70%
Rainfall 0.00 in
Snow Depth Not available.
UV 1 out of 12
Pollen Not available.
Air Quality Not available.
Flu Activity Not available.
METAR EDDT 051420Z 30009KT 9999 VCSH SCT023 BKN060 06/01 Q1032 NOSIG

More Conditions Fewer Conditions

10-Day Weather Forecast

Almanac

Astronomy

Mar. 05, 2015 Rise Set
Actual Time
Civil Twilight
Nautical Twilight
Astronomical Twilight
Moon
Length of Visible Light
Length of Day
Tomorrow will be .
, % of the Moon is Illuminated

Today's Extremes

Country Highs Country Lows

Community

WunderPhotos

Upload Photos

1,802,782 photos uploaded!

WunderBlogs® & News

Nearby

Air Quality

  Air Quality AQ Index Pollutant
Not available.

Snow Depth

Station Depth Elevation

Earthquake Activity

City Distance Mag. Time & Date
Minimum magnitude displayed is 2.5.

Coastal Water Temperatures

Place Temperature

Nearby Weather Stations